PH-0092 weather

Cabaluyan Airstrip
Mangatarem, Pangasinan Province, Philippines

Public forecast

Using degrees Celsius for public forecast. Weather courtesy of forecast.io.

METAR (pilot weather report)

Closest report is Diosdado Macapagal International Airport, 33.0 nm (61.2 km) SSE. Retrieved 2019/09/19 09:00 UTC (22 minutes ago):

RPLC 190900Z 27004KT 4000 RA SCT018 OVC090 26/24 Q1008 RMK A2977

TAF (pilot weather forecast)

Closest forecast is Diosdado Macapagal International Airport, 33.0 nm (61.2 km) SSE. Retrieved 2019/09/19 06:00 UTC (3 hours ago):

TAF RPLC 190500Z 1906/2012 15006KT 8000 SCT020 BKN100 TX29/1906Z TN24/1922Z TEMPO 1906/1912 25008KT 5000 -TSRA FEW015CB SCT018 OVC100